Time;durP1;ratioP1;P1;durP2;ratioP2;P2;SDS_P1;SDS_P2;PMS_P1;PMS_P2;Temp;Humidity;BMP_temperature;BMP_pressure;BME280_temperature;BME280_humidity;BME280_pressure;Samples;Min_cycle;Max_cycle;Signal;HPM_P1;HPM_P2
2022/03/16 00:01:26;;;;;;;8.32;5.55;;;;;;;7.14;73.10;96690.06;10277167;28;97413;-84
2022/03/16 00:06:29;;;;;;;8.97;6.23;;;;;;;7.10;73.12;96677.44;10280799;28;98005;-85
2022/03/16 00:11:32;;;;;;;12.13;6.20;;;;;;;7.16;72.89;96676.97;10279094;28;98087;-84
2022/03/16 00:16:37;;;;;;;7.75;5.68;;;;;;;7.17;72.95;96669.03;10283844;28;97262;-85
2022/03/16 00:21:40;;;;;;;10.63;6.67;;;;;;;6.88;73.57;96680.75;10293136;28;97103;-84
2022/03/16 00:26:43;;;;;;;8.95;6.35;;;;;;;6.92;73.54;96679.59;10288505;28;97773;-85
2022/03/16 00:31:48;;;;;;;10.05;6.28;;;;;;;6.91;73.87;96678.75;10290499;28;96741;-84
2022/03/16 00:36:51;;;;;;;11.40;6.43;;;;;;;6.97;73.39;96677.50;10270091;28;96965;-84
2022/03/16 00:41:53;;;;;;;11.23;6.97;;;;;;;6.71;74.03;96682.00;10276777;28;96993;-84
2022/03/16 00:46:58;;;;;;;9.35;6.70;;;;;;;6.37;74.96;96679.28;10293819;28;98000;-84
2022/03/16 00:52:01;;;;;;;9.30;5.90;;;;;;;6.45;74.65;96682.97;10275598;28;96974;-84
2022/03/16 00:57:04;;;;;;;10.80;6.20;;;;;;;6.24;75.21;96681.91;10276318;28;97147;-84
2022/03/16 01:02:09;;;;;;;9.82;6.10;;;;;;;6.17;75.65;96672.94;10291806;28;97189;-84
2022/03/16 01:07:12;;;;;;;13.97;6.73;;;;;;;6.00;75.79;96672.38;10274934;28;98231;-85
2022/03/16 01:12:15;;;;;;;12.48;5.53;;;;;;;5.90;76.65;96666.19;10284492;28;100239;-85
2022/03/16 01:17:19;;;;;;;10.40;5.72;;;;;;;5.88;76.52;96662.88;10301707;28;96829;-84
2022/03/16 01:22:22;;;;;;;8.97;5.13;;;;;;;5.97;76.22;96651.00;10289176;28;98054;-84
2022/03/16 01:27:25;;;;;;;8.45;4.80;;;;;;;6.06;75.83;96658.94;10279664;28;96926;-84
2022/03/16 01:32:29;;;;;;;8.35;5.63;;;;;;;6.02;75.70;96654.13;10284928;28;97826;-84
2022/03/16 01:37:32;;;;;;;8.05;4.78;;;;;;;6.00;75.58;96650.78;10280044;28;97394;-84
2022/03/16 01:42:35;;;;;;;10.15;5.57;;;;;;;5.97;75.76;96651.84;10277706;28;97244;-84
2022/03/16 01:47:39;;;;;;;9.18;4.57;;;;;;;5.89;76.05;96657.53;10269974;28;98790;-84
2022/03/16 01:52:42;;;;;;;10.38;5.18;;;;;;;5.86;76.10;96657.78;10282009;28;96845;-84
2022/03/16 01:57:48;;;;;;;5.53;4.30;;;;;;;5.65;76.56;96662.72;10289050;28;98018;-84
2022/03/16 02:02:52;;;;;;;8.05;4.53;;;;;;;5.55;76.91;96659.09;10284832;28;98825;-84
2022/03/16 02:07:55;;;;;;;11.02;5.00;;;;;;;5.62;76.75;96647.38;10279582;28;97809;-84
2022/03/16 02:12:59;;;;;;;7.67;4.43;;;;;;;5.41;77.29;96649.69;10290652;28;96877;-84
2022/03/16 02:18:04;;;;;;;7.70;4.47;;;;;;;5.15;77.52;96644.53;10283997;28;97211;-84
2022/03/16 02:23:09;;;;;;;10.27;5.40;;;;;;;5.04;77.84;96646.19;10285318;28;97097;-84
2022/03/16 02:28:12;;;;;;;;;;;;;;;5.04;78.45;96646.19;10288730;28;96974;-84
2022/03/16 02:33:15;;;;;;;8.43;4.78;;;;;;;5.04;78.10;96651.34;10281831;28;97534;-84
2022/03/16 02:38:19;;;;;;;6.78;5.28;;;;;;;5.11;77.75;96647.41;10277995;28;96957;-84
2022/03/16 02:43:23;;;;;;;6.70;3.90;;;;;;;5.30;77.32;96650.41;10283575;28;96960;-84
2022/03/16 02:48:26;;;;;;;7.90;4.63;;;;;;;5.51;76.99;96640.34;10269161;28;96924;-84
2022/03/16 02:53:30;;;;;;;9.40;5.90;;;;;;;5.74;76.55;96634.47;10289128;28;100241;-84
2022/03/16 02:58:33;;;;;;;7.45;5.32;;;;;;;5.79;76.22;96638.41;10291266;28;98232;-84
2022/03/16 03:03:36;;;;;;;9.32;5.70;;;;;;;5.77;76.21;96639.44;10288958;28;96831;-84
2022/03/16 03:08:40;;;;;;;9.88;5.18;;;;;;;5.55;76.76;96634.94;10272229;28;96888;-84
2022/03/16 03:13:43;;;;;;;9.35;4.82;;;;;;;5.58;76.70;96648.50;10275813;28;97252;-84
2022/03/16 03:18:46;;;;;;;6.43;4.20;;;;;;;5.44;76.88;96657.22;10288732;28;97420;-84
2022/03/16 03:23:50;;;;;;;10.52;5.28;;;;;;;5.19;77.50;96660.69;10277664;28;97000;-84
2022/03/16 03:28:53;;;;;;;8.30;4.07;;;;;;;5.19;77.67;96658.09;10290376;28;97061;-84
2022/03/16 03:33:56;;;;;;;7.30;5.10;;;;;;;5.09;77.24;96663.06;10290082;28;98725;-84
2022/03/16 03:39:00;;;;;;;8.90;5.07;;;;;;;5.10;77.44;96661.31;10292383;28;96882;-84
2022/03/16 03:44:03;;;;;;;7.60;5.10;;;;;;;5.00;77.17;96661.09;10283496;28;98022;-84
2022/03/16 03:49:06;;;;;;;9.52;5.43;;;;;;;4.66;78.09;96668.50;10291613;28;98562;-84
2022/03/16 03:54:11;;;;;;;8.27;5.20;;;;;;;4.51;78.64;96661.75;10283128;28;98403;-84
2022/03/16 03:59:13;;;;;;;8.77;4.90;;;;;;;4.50;78.64;96660.91;10277242;28;99430;-84
2022/03/16 04:04:16;;;;;;;8.68;5.65;;;;;;;4.49;78.88;96661.84;10270915;28;99108;-84
2022/03/16 04:09:21;;;;;;;9.02;5.60;;;;;;;4.46;79.19;96664.63;10281132;28;98523;-84
2022/03/16 04:14:24;;;;;;;7.90;5.43;;;;;;;4.48;79.39;96655.00;10280752;28;97124;-84
2022/03/16 04:19:27;;;;;;;7.40;4.90;;;;;;;4.63;78.50;96652.34;10277423;28;98725;-84
2022/03/16 04:24:31;;;;;;;8.50;4.97;;;;;;;4.66;78.84;96650.38;10280241;28;98122;-84
2022/03/16 04:29:35;;;;;;;6.63;3.95;;;;;;;4.44;78.88;96653.56;10287547;28;97460;-84
2022/03/16 04:34:38;;;;;;;6.38;4.22;;;;;;;4.46;79.10;96654.28;10287696;28;96892;-84
2022/03/16 04:39:42;;;;;;;6.93;4.10;;;;;;;4.45;79.00;96650.03;10287618;28;96797;-84
2022/03/16 04:44:48;;;;;;;6.38;4.18;;;;;;;4.31;79.31;96650.09;10289100;28;97236;-84
2022/03/16 04:49:51;;;;;;;7.38;4.95;;;;;;;4.15;79.33;96650.25;10287338;28;96902;-84
2022/03/16 04:54:55;;;;;;;9.15;5.53;;;;;;;4.14;79.47;96644.28;10291386;28;97237;-84
2022/03/16 04:59:58;;;;;;;7.03;4.85;;;;;;;4.18;79.48;96645.72;10290653;28;96797;-84
2022/03/16 05:05:01;;;;;;;9.20;5.10;;;;;;;4.17;79.92;96646.63;10285506;28;98104;-84
2022/03/16 05:10:07;;;;;;;6.60;4.50;;;;;;;4.11;79.20;96647.06;10274696;28;97224;-84
2022/03/16 05:15:14;;;;;;;8.02;5.10;;;;;;;3.89;79.59;96637.22;10280234;28;97331;-84
2022/03/16 05:20:17;;;;;;;8.55;4.78;;;;;;;3.77;79.91;96633.66;10281392;28;96813;-84
2022/03/16 05:25:24;;;;;;;8.35;5.05;;;;;;;3.69;80.94;96625.56;10275955;28;96772;-84
2022/03/16 05:30:27;;;;;;;10.13;5.25;;;;;;;3.66;80.82;96630.06;10282001;28;101765;-84
2022/03/16 05:35:32;;;;;;;9.13;4.78;;;;;;;3.64;80.81;96623.28;10274248;28;99189;-84
2022/03/16 05:40:36;;;;;;;9.55;5.50;;;;;;;3.75;80.74;96626.94;10269748;28;96935;-84
2022/03/16 05:45:40;;;;;;;9.35;5.07;;;;;;;3.91;80.03;96630.19;10286149;28;97080;-84
2022/03/16 05:50:45;;;;;;;7.28;4.63;;;;;;;4.01;79.69;96627.88;10267685;28;97849;-84
2022/03/16 05:55:49;;;;;;;9.38;5.22;;;;;;;3.98;79.46;96625.47;10274282;28;98489;-84
2022/03/16 06:00:52;;;;;;;7.57;4.32;;;;;;;3.95;79.84;96617.91;10271555;28;99288;-84
2022/03/16 06:05:55;;;;;;;7.68;4.55;;;;;;;3.83;80.05;96616.97;10276302;28;97731;-84
2022/03/16 06:10:59;;;;;;;7.22;3.88;;;;;;;3.78;80.12;96624.16;10273998;28;99412;-84
2022/03/16 06:16:03;;;;;;;5.43;3.90;;;;;;;3.82;79.80;96634.19;10291346;28;96919;-84
2022/03/16 06:21:07;;;;;;;4.88;3.67;;;;;;;3.89;79.87;96633.81;10277206;28;96909;-84
2022/03/16 06:26:11;;;;;;;6.55;3.95;;;;;;;3.93;80.09;96638.69;10284765;28;97264;-84
2022/03/16 06:31:14;;;;;;;8.73;5.15;;;;;;;4.25;79.55;96633.22;10278786;28;98019;-85
2022/03/16 06:36:17;;;;;;;7.55;4.30;;;;;;;4.20;79.52;96641.28;10288311;28;96978;-85
2022/03/16 06:41:21;;;;;;;9.15;4.82;;;;;;;4.24;79.51;96635.91;10278606;28;96960;-85
2022/03/16 06:46:24;;;;;;;11.02;5.88;;;;;;;4.32;79.12;96638.84;10292596;28;96956;-85
2022/03/16 06:51:28;;;;;;;6.97;4.70;;;;;;;4.41;78.83;96637.41;10278374;28;97849;-85
2022/03/16 06:56:32;;;;;;;9.63;5.70;;;;;;;4.57;79.34;96638.06;10274963;28;96851;-85
2022/03/16 07:01:35;;;;;;;10.13;5.93;;;;;;;4.81;78.41;96640.78;10286841;28;100697;-85
2022/03/16 07:06:38;;;;;;;11.00;5.85;;;;;;;4.70;78.80;96643.28;10286840;28;98566;-85
2022/03/16 07:11:43;;;;;;;9.32;5.72;;;;;;;4.75;79.12;96641.22;10283491;28;97849;-85
2022/03/16 07:16:46;;;;;;;9.10;5.88;;;;;;;5.06;78.50;96641.72;10278386;28;98869;-85
2022/03/16 07:21:49;;;;;;;12.30;6.30;;;;;;;5.10;78.79;96650.97;10290025;28;97911;-85
2022/03/16 07:26:55;;;;;;;10.35;6.25;;;;;;;5.11;79.00;96647.41;10287106;28;98064;-85
2022/03/16 07:31:58;;;;;;;9.13;5.75;;;;;;;5.34;78.54;96648.47;10296220;28;98285;-85
2022/03/16 07:37:01;;;;;;;9.35;5.75;;;;;;;5.60;78.59;96644.06;10277858;28;96869;-85
2022/03/16 07:42:05;;;;;;;10.80;6.53;;;;;;;5.88;78.15;96632.56;10282059;28;97170;-85
2022/03/16 07:47:08;;;;;;;10.23;6.60;;;;;;;6.11;77.83;96637.88;10285866;28;97319;-85
2022/03/16 07:52:11;;;;;;;11.82;7.30;;;;;;;6.43;77.40;96640.75;10273391;28;97243;-85
2022/03/16 07:57:16;;;;;;;16.02;7.93;;;;;;;6.75;76.99;96640.13;10278193;28;96965;-85
2022/03/16 08:02:19;;;;;;;12.63;7.18;;;;;;;6.92;76.76;96640.63;10287089;28;96776;-86
2022/03/16 08:07:22;;;;;;;12.00;7.15;;;;;;;7.09;76.65;96639.41;10290658;28;96740;-86
2022/03/16 08:12:26;;;;;;;9.20;6.80;;;;;;;7.31;76.42;96647.22;10295114;28;96832;-85
2022/03/16 08:17:29;;;;;;;11.43;7.50;;;;;;;7.45;76.06;96646.16;10285583;28;97204;-86
2022/03/16 08:22:33;;;;;;;15.50;7.47;;;;;;;7.66;75.94;96654.06;10275462;28;96975;-86
2022/03/16 08:27:39;;;;;;;12.35;6.85;;;;;;;7.86;75.72;96647.31;10264590;28;96915;-86
2022/03/16 08:32:42;;;;;;;11.38;6.82;;;;;;;8.08;75.28;96653.41;10283080;28;99759;-86
2022/03/16 08:37:46;;;;;;;10.63;6.57;;;;;;;8.25;75.20;96654.66;10280904;28;96865;-85
2022/03/16 08:42:52;;;;;;;12.27;6.63;;;;;;;8.43;75.10;96657.56;10279815;28;97598;-86
2022/03/16 08:47:55;;;;;;;12.38;6.72;;;;;;;8.59;75.15;96668.41;10274617;28;97696;-86
2022/03/16 08:52:58;;;;;;;12.02;7.47;;;;;;;8.78;74.32;96674.69;10266665;28;96835;-86
2022/03/16 08:58:02;;;;;;;13.75;7.35;;;;;;;8.94;74.25;96672.47;10267693;28;96732;-86
2022/03/16 09:03:05;;;;;;;10.33;7.10;;;;;;;9.13;73.57;96689.22;10267756;28;96877;-86
2022/03/16 09:08:09;;;;;;;14.25;7.38;;;;;;;9.26;74.16;96684.59;10266927;28;97325;-86
2022/03/16 09:13:15;;;;;;;9.93;6.40;;;;;;;9.41;74.03;96690.31;10271976;28;98828;-86
2022/03/16 09:18:20;;;;;;;8.75;6.70;;;;;;;9.65;73.12;96697.91;10265019;28;97756;-86
2022/03/16 09:23:30;;;;;;;10.88;7.07;;;;;;;9.83;73.09;96696.28;10260670;28;96982;-86
2022/03/16 09:28:34;;;;;;;13.98;7.18;;;;;;;10.04;72.51;96683.22;10270364;28;97428;-86
2022/03/16 09:33:37;;;;;;;11.37;7.10;;;;;;;10.21;72.35;96689.53;10279576;28;96935;-86
2022/03/16 09:38:40;;;;;;;12.32;7.47;;;;;;;10.24;71.87;96694.50;10296117;28;98676;-86
2022/03/16 09:43:45;;;;;;;11.52;7.28;;;;;;;10.45;71.55;96684.94;10271240;28;99741;-86
2022/03/16 09:48:48;;;;;;;13.38;7.50;;;;;;;10.58;70.92;96686.31;10267127;28;97181;-86
2022/03/16 09:53:52;;;;;;;16.38;7.35;;;;;;;10.84;70.67;96682.31;10269032;28;99382;-86
2022/03/16 09:58:56;;;;;;;10.57;7.35;;;;;;;11.05;70.22;96671.69;10268083;28;96974;-86
2022/03/16 10:04:03;;;;;;;12.87;7.57;;;;;;;11.23;69.70;96658.75;10288792;28;96894;-86
2022/03/16 10:14:46;;;;;;;10.52;6.82;;;;;;;11.58;68.84;96647.63;10281461;28;97999;-86
2022/03/16 10:19:50;;;;;;;12.98;7.47;;;;;;;11.84;68.32;96646.97;10287129;28;98972;-86
2022/03/16 10:24:59;;;;;;;12.65;7.50;;;;;;;12.04;67.80;96635.44;10289072;28;101821;-86
2022/03/16 10:30:05;;;;;;;11.48;7.28;;;;;;;12.18;67.18;96639.34;10286268;28;98502;-86
2022/03/16 10:35:15;;;;;;;12.20;6.95;;;;;;;12.33;66.99;96641.44;10286234;28;100218;-86
2022/03/16 10:40:20;;;;;;;8.75;6.22;;;;;;;12.54;67.36;96641.97;10285849;28;96767;-86
2022/03/16 10:50:45;;;;;;;12.65;6.75;;;;;;;12.68;66.15;96627.50;10278241;28;96891;-86
2022/03/16 10:55:48;;;;;;;10.05;6.60;;;;;;;12.87;64.96;96623.88;10272927;28;100529;-86
2022/03/16 11:00:53;;;;;;;13.75;7.05;;;;;;;13.10;64.71;96621.63;10275693;28;97297;-86
2022/03/16 11:05:57;;;;;;;14.55;8.65;;;;;;;13.23;66.30;96624.66;10268489;28;97808;-86
2022/03/16 11:13:27;;;;;;;10.40;7.30;;;;;;;13.28;65.35;96626.00;10281700;28;98528;-86
2022/03/16 11:16:27;;;;;;;12.20;6.82;;;;;;;13.43;63.72;96619.22;10289617;28;97346;-87
2022/03/16 11:21:35;;;;;;;13.65;6.97;;;;;;;13.53;63.17;96614.63;10279083;28;97827;-86
2022/03/16 11:26:45;;;;;;;11.48;7.15;;;;;;;13.55;65.31;96622.34;10274106;28;97092;-86
2022/03/16 11:31:50;;;;;;;14.18;7.70;;;;;;;13.65;63.91;96622.25;10278650;28;98261;-86
2022/03/16 11:37:01;;;;;;;12.20;7.28;;;;;;;13.80;62.87;96610.97;10291829;28;96955;-86
2022/03/16 11:42:07;;;;;;;10.02;6.47;;;;;;;13.91;62.63;96604.63;10293788;28;97228;-86
2022/03/16 11:47:37;;;;;;;11.27;6.68;;;;;;;14.08;62.71;96591.53;10277773;28;97049;-87
2022/03/16 11:53:05;;;;;;;14.02;6.20;;;;;;;14.17;60.94;96585.31;10281690;28;96826;-87
2022/03/16 11:58:40;;;;;;;7.68;5.22;;;;;;;14.05;59.65;96578.72;10278101;28;102200;-86
2022/03/16 12:03:45;;;;;;;15.60;7.53;;;;;;;14.11;60.68;96559.69;10281081;28;96968;-87
2022/03/16 12:08:51;;;;;;;10.75;7.07;;;;;;;14.31;61.23;96547.91;10292156;28;96947;-86
2022/03/16 12:13:56;;;;;;;10.70;7.15;;;;;;;14.47;60.62;96531.34;10293874;28;100064;-86
2022/03/16 12:19:30;;;;;;;9.07;7.30;;;;;;;14.69;60.06;96532.44;10261884;28;96950;-86
2022/03/16 12:29:59;;;;;;;11.17;7.40;;;;;;;14.98;59.48;96517.13;10270452;28;97609;-87
2022/03/16 12:35:05;;;;;;;12.50;8.10;;;;;;;15.06;58.50;96511.81;10267407;28;96806;-87
2022/03/16 12:40:11;;;;;;;11.63;7.28;;;;;;;15.07;58.71;96492.44;10276703;28;96789;-87
2022/03/16 12:45:16;;;;;;;15.15;8.23;;;;;;;15.12;59.08;96484.84;10270796;28;97199;-87
2022/03/16 12:50:22;;;;;;;11.55;7.40;;;;;;;15.18;59.75;96475.44;10281324;28;96731;-86
2022/03/16 12:55:25;;;;;;;11.32;8.10;;;;;;;15.26;58.95;96475.41;10262415;28;96820;-87
2022/03/16 13:00:32;;;;;;;12.77;7.85;;;;;;;15.34;58.09;96466.66;10282954;28;97115;-87
2022/03/16 13:05:38;;;;;;;12.52;7.57;;;;;;;15.45;58.36;96461.84;10280871;28;97703;-87
2022/03/16 13:16:01;;;;;;;12.07;7.70;;;;;;;15.53;57.85;96449.59;10274750;28;98878;-87
2022/03/16 13:21:23;;;;;;;12.32;8.40;;;;;;;15.68;56.81;96443.44;10274564;28;100091;-87
2022/03/16 13:26:28;;;;;;;11.35;7.53;;;;;;;15.70;57.18;96432.75;10285371;28;97842;-87
2022/03/16 13:31:32;;;;;;;8.85;6.72;;;;;;;15.65;56.86;96433.28;10272977;28;96909;-87
2022/03/16 13:36:38;;;;;;;10.63;6.73;;;;;;;15.85;56.92;96428.34;10274702;28;96998;-87
2022/03/16 13:42:12;;;;;;;8.05;6.18;;;;;;;15.93;55.99;96424.88;10282838;28;96945;-87
2022/03/16 13:47:30;;;;;;;11.55;6.72;;;;;;;15.99;55.45;96407.53;10306303;28;97597;-87
2022/03/16 13:52:40;;;;;;;10.80;6.47;;;;;;;16.06;55.90;96408.44;10262298;28;96931;-87
2022/03/16 13:57:46;;;;;;;12.93;7.63;;;;;;;15.97;55.67;96405.06;10285067;28;96961;-87
2022/03/16 14:02:49;;;;;;;11.10;7.00;;;;;;;16.02;57.00;96399.25;10279310;28;98019;-87
2022/03/16 14:07:54;;;;;;;7.57;6.47;;;;;;;15.97;57.54;96401.63;10279066;28;96932;-87
2022/03/16 14:13:03;;;;;;;11.18;6.32;;;;;;;15.99;56.22;96391.72;10285133;28;96950;-87
2022/03/16 14:18:10;;;;;;;10.20;6.35;;;;;;;16.10;55.83;96388.63;10277759;28;96942;-87
2022/03/16 14:23:15;;;;;;;9.48;6.07;;;;;;;16.14;56.78;96389.13;10285617;28;97142;-87
2022/03/16 14:28:19;;;;;;;9.73;6.07;;;;;;;16.24;56.29;96385.22;10266818;28;97039;-87
2022/03/16 14:33:24;;;;;;;9.23;6.03;;;;;;;16.16;55.81;96381.84;10287601;28;96884;-87
2022/03/16 14:38:29;;;;;;;9.43;6.03;;;;;;;16.18;55.12;96380.66;10286965;28;97504;-87
2022/03/16 14:43:32;;;;;;;8.73;5.82;;;;;;;16.15;54.58;96369.66;10279106;28;100154;-87
2022/03/16 14:48:35;;;;;;;11.57;6.25;;;;;;;16.11;55.10;96369.19;10282700;28;99151;-87
2022/03/16 14:53:39;;;;;;;10.25;6.82;;;;;;;16.05;55.23;96360.19;10287683;28;97014;-87
2022/03/16 14:58:42;;;;;;;11.45;6.72;;;;;;;15.91;55.16;96368.06;10296856;28;97801;-87
2022/03/16 15:03:45;;;;;;;10.77;6.75;;;;;;;15.99;55.42;96368.81;10294699;28;96802;-87
2022/03/16 15:08:50;;;;;;;9.45;5.72;;;;;;;15.94;55.15;96359.81;10277956;28;97185;-87
2022/03/16 15:13:53;;;;;;;9.13;5.60;;;;;;;15.85;55.91;96359.06;10292449;28;97186;-87
2022/03/16 15:18:56;;;;;;;7.07;5.50;;;;;;;15.74;55.38;96360.31;10278536;28;96840;-87
2022/03/16 15:24:01;;;;;;;10.07;5.82;;;;;;;15.47;55.78;96356.34;10269666;28;96921;-87
2022/03/16 15:29:04;;;;;;;9.45;4.95;;;;;;;15.40;55.92;96360.69;10275820;28;98496;-87
2022/03/16 15:34:08;;;;;;;6.07;4.80;;;;;;;15.26;55.14;96357.81;10287827;28;97342;-87
2022/03/16 15:39:13;;;;;;;7.85;4.55;;;;;;;15.26;55.93;96359.63;10274746;28;98778;-87
2022/03/16 15:44:16;;;;;;;7.13;4.40;;;;;;;15.21;55.49;96357.50;10280140;28;97060;-87
2022/03/16 15:49:22;;;;;;;8.50;4.30;;;;;;;15.17;55.23;96355.41;10300888;28;99784;-87
2022/03/16 15:54:27;;;;;;;10.20;4.82;;;;;;;15.04;55.10;96356.75;10288040;28;97199;-87
2022/03/16 15:59:30;;;;;;;10.10;4.95;;;;;;;14.94;54.80;96351.75;10279547;28;97192;-87
2022/03/16 16:04:34;;;;;;;7.55;4.72;;;;;;;14.86;54.93;96353.59;10295253;28;96898;-87
2022/03/16 16:09:39;;;;;;;7.87;4.83;;;;;;;14.82;55.01;96347.00;10272343;28;99424;-87
2022/03/16 16:14:42;;;;;;;6.90;4.57;;;;;;;14.75;56.04;96347.72;10282105;28;97774;-87
2022/03/16 16:19:45;;;;;;;11.02;5.40;;;;;;;14.66;55.44;96356.63;10277677;28;98605;-87
2022/03/16 16:24:49;;;;;;;8.65;5.00;;;;;;;14.61;56.63;96350.22;10263728;28;96802;-87
2022/03/16 16:29:52;;;;;;;9.40;4.75;;;;;;;14.59;57.53;96366.16;10279768;28;97793;-86
2022/03/16 16:34:55;;;;;;;9.90;5.25;;;;;;;14.52;56.68;96360.78;10285641;28;100843;-87
2022/03/16 16:39:59;;;;;;;8.90;5.38;;;;;;;14.40;56.96;96369.19;10271200;28;97054;-87
2022/03/16 16:45:02;;;;;;;9.02;5.65;;;;;;;14.22;57.06;96362.31;10287428;28;97211;-87
2022/03/16 16:50:09;;;;;;;11.57;5.80;;;;;;;14.11;57.30;96371.34;10288636;28;99034;-87
2022/03/16 16:55:15;;;;;;;10.23;5.50;;;;;;;13.86;57.17;96367.91;10277594;28;96974;-86
2022/03/16 17:00:21;;;;;;;10.20;5.47;;;;;;;13.64;58.30;96364.16;10274480;28;96964;-87
2022/03/16 17:05:29;;;;;;;9.80;5.20;;;;;;;13.53;57.98;96367.09;10280121;28;96817;-87
2022/03/16 17:10:37;;;;;;;12.88;5.90;;;;;;;13.41;58.64;96364.81;10264816;28;97063;-86
2022/03/16 17:15:42;;;;;;;11.18;6.07;;;;;;;13.32;59.10;96363.13;10274131;28;97877;-86
2022/03/16 17:20:47;;;;;;;8.93;5.95;;;;;;;13.23;59.32;96375.44;10281846;28;96830;-87
2022/03/16 17:25:52;;;;;;;8.70;5.47;;;;;;;13.02;59.93;96373.25;10286706;28;98405;-87
2022/03/16 17:30:57;;;;;;;11.73;7.25;;;;;;;12.88;60.37;96382.50;10285652;28;99654;-86
2022/03/16 17:36:02;;;;;;;10.07;5.80;;;;;;;12.82;60.58;96385.78;10280519;28;99745;-87
2022/03/16 17:46:27;;;;;;;9.95;6.50;;;;;;;12.11;62.78;96389.50;10274288;28;98671;-86
2022/03/16 17:51:30;;;;;;;8.25;5.65;;;;;;;11.96;63.37;96404.94;10262724;28;103904;-86
2022/03/16 17:56:46;;;;;;;16.70;11.63;;;;;;;12.09;63.17;96400.13;10270122;28;101054;-86
2022/03/16 18:01:50;;;;;;;13.18;8.43;;;;;;;11.99;63.43;96398.56;10263836;28;99863;-86
2022/03/16 18:06:55;;;;;;;12.03;5.73;;;;;;;11.75;64.09;96402.66;10278456;28;98998;-87
2022/03/16 18:17:28;;;;;;;10.05;4.35;;;;;;;11.20;65.44;96400.94;10190668;28;97500;-86
2022/03/16 18:22:33;;;;;;;6.53;4.55;;;;;;;11.21;65.59;96402.59;10186747;28;97848;-86
2022/03/16 18:27:38;;;;;;;6.60;4.33;;;;;;;11.17;65.90;96411.69;10195578;28;98649;-86
2022/03/16 18:32:41;;;;;;;6.30;4.25;;;;;;;10.92;66.55;96414.03;10209340;28;99096;-87
2022/03/16 18:37:44;;;;;;;12.57;4.85;;;;;;;10.43;68.31;96421.25;10192123;28;97205;-86
2022/03/16 18:42:48;;;;;;;9.45;5.10;;;;;;;10.24;69.14;96425.56;10195087;28;97207;-86
2022/03/16 18:47:51;;;;;;;13.63;5.13;;;;;;;10.23;69.29;96426.53;10196492;28;99148;-86
2022/03/16 18:52:57;;;;;;;10.10;5.50;;;;;;;10.07;69.62;96426.28;10255511;28;96998;-86
2022/03/16 18:58:19;;;;;;;7.53;5.25;;;;;;;9.97;70.03;96430.69;10280862;28;101425;-86
2022/03/16 19:03:24;;;;;;;8.32;5.38;;;;;;;9.89;70.22;96430.56;10277223;28;100102;-86
2022/03/16 19:08:28;;;;;;;9.50;5.82;;;;;;;9.85;70.60;96432.63;10280686;28;98529;-87
2022/03/16 19:13:48;;;;;;;8.70;5.47;;;;;;;9.82;70.68;96438.94;10268499;28;98552;-86
2022/03/16 19:18:55;;;;;;;7.00;4.88;;;;;;;9.93;70.69;96445.81;10268637;28;101637;-87
2022/03/16 19:23:59;;;;;;;10.18;5.60;;;;;;;9.95;70.38;96443.06;10268981;28;96998;-86
2022/03/16 19:29:04;;;;;;;10.40;5.07;;;;;;;9.91;69.85;96441.69;10281687;28;96753;-86
2022/03/16 19:34:07;;;;;;;10.38;5.57;;;;;;;9.56;71.02;96445.66;10276826;28;98888;-86
2022/03/16 19:39:10;;;;;;;13.68;5.28;;;;;;;9.53;71.06;96446.78;10275530;28;97486;-86
2022/03/16 19:44:14;;;;;;;8.88;4.78;;;;;;;9.25;71.45;96440.53;10290076;28;102289;-86
2022/03/16 19:49:21;;;;;;;11.93;5.43;;;;;;;9.06;71.95;96449.94;10270787;28;97192;-86
2022/03/16 19:54:26;;;;;;;8.82;4.70;;;;;;;8.98;72.39;96447.16;10285421;28;97463;-85
2022/03/16 19:59:30;;;;;;;9.00;4.30;;;;;;;8.96;72.39;96450.88;10282665;28;97496;-86
2022/03/16 20:04:33;;;;;;;10.30;4.17;;;;;;;8.90;72.61;96452.25;10273057;28;102192;-85
2022/03/16 20:09:36;;;;;;;8.10;4.32;;;;;;;8.70;72.71;96464.34;10293256;28;97170;-86
2022/03/16 20:14:43;;;;;;;13.25;8.18;;;;;;;8.66;72.57;96461.19;10278980;28;97358;-85
2022/03/16 20:19:46;;;;;;;25.73;15.15;;;;;;;8.72;73.04;96459.84;10262977;28;96953;-86
2022/03/16 20:24:49;;;;;;;11.00;6.82;;;;;;;8.80;73.18;96461.81;10278187;28;97765;-86
2022/03/16 20:29:56;;;;;;;7.70;5.05;;;;;;;8.76;72.85;96455.19;10284206;28;96840;-86
2022/03/16 20:35:00;;;;;;;10.27;5.97;;;;;;;8.88;72.57;96462.78;10277774;28;97805;-86
2022/03/16 20:40:03;;;;;;;9.13;4.55;;;;;;;8.82;72.96;96465.09;10282646;28;98604;-86
2022/03/16 20:45:09;;;;;;;8.73;5.78;;;;;;;8.65;73.57;96462.13;10281503;28;98655;-86
2022/03/16 20:50:12;;;;;;;8.43;4.07;;;;;;;8.73;73.54;96464.91;10291862;28;98604;-86
2022/03/16 20:55:15;;;;;;;8.38;4.75;;;;;;;8.70;73.74;96462.56;10268637;28;97765;-86
2022/03/16 21:05:41;;;;;;;8.73;5.43;;;;;;;8.57;74.03;96472.41;10267089;28;100139;-86
2022/03/16 21:10:45;;;;;;;7.35;4.70;;;;;;;8.49;73.79;96475.63;10276341;28;97988;-86
2022/03/16 21:15:49;;;;;;;9.02;5.03;;;;;;;8.37;74.40;96481.84;10284280;28;97262;-86
2022/03/16 21:20:52;;;;;;;7.23;4.37;;;;;;;8.22;74.51;96489.19;10278656;28;97822;-86
2022/03/16 21:26:00;;;;;;;8.90;4.63;;;;;;;8.25;74.75;96496.72;10288881;28;96909;-86
2022/03/16 21:31:05;;;;;;;17.83;11.23;;;;;;;8.29;74.10;96497.28;10275106;28;97419;-86
2022/03/16 21:36:08;;;;;;;10.83;6.60;;;;;;;8.23;74.71;96501.22;10265930;28;97690;-86
2022/03/16 21:46:36;;;;;;;14.98;8.15;;;;;;;8.26;74.40;96500.97;10111186;28;98921;-87
2022/03/16 21:51:41;;;;;;;7.97;4.77;;;;;;;8.11;74.37;96495.25;10102064;28;99469;-86
2022/03/16 21:56:44;;;;;;;7.75;4.20;;;;;;;7.77;75.34;96490.22;10113502;28;97739;-85
2022/03/16 22:01:51;;;;;;;11.27;6.28;;;;;;;7.82;75.97;96486.41;10105242;28;98344;-86
2022/03/16 22:06:55;;;;;;;10.25;5.53;;;;;;;7.92;75.11;96482.91;10111814;28;98899;-86
2022/03/16 22:12:01;;;;;;;11.80;7.00;;;;;;;7.93;75.19;96481.97;10114071;28;97105;-86
2022/03/16 22:17:06;;;;;;;11.10;7.22;;;;;;;7.92;75.34;96489.91;10101478;28;98186;-86
2022/03/16 22:22:09;;;;;;;11.05;6.22;;;;;;;7.84;75.19;96484.50;10176560;28;97276;-86
2022/03/16 22:27:13;;;;;;;11.23;7.63;;;;;;;7.83;75.49;96491.47;10280412;28;96881;-86
2022/03/16 22:32:19;;;;;;;13.00;7.35;;;;;;;7.80;75.54;96489.13;10270522;28;98812;-86
2022/03/16 22:37:27;;;;;;;14.52;8.18;;;;;;;7.78;75.75;96491.03;10271534;28;97019;-86
2022/03/16 22:42:30;;;;;;;15.57;8.30;;;;;;;7.74;75.52;96489.63;10279296;28;98081;-86
2022/03/16 22:47:35;;;;;;;11.57;8.43;;;;;;;7.71;75.66;96493.28;10274914;28;96926;-86
2022/03/16 22:52:38;;;;;;;12.85;7.40;;;;;;;7.40;76.81;96492.31;10287050;28;96925;-86
2022/03/16 22:57:43;;;;;;;12.82;8.00;;;;;;;7.30;76.80;96494.00;10286155;28;97181;-86
2022/03/16 23:02:47;;;;;;;11.40;7.15;;;;;;;7.32;76.71;96494.69;10279239;28;98856;-86
2022/03/16 23:07:51;;;;;;;9.23;6.23;;;;;;;7.35;76.61;96499.66;10275126;28;98663;-86
2022/03/16 23:12:57;;;;;;;11.00;5.57;;;;;;;7.36;76.64;96502.13;10286633;28;97044;-86
2022/03/16 23:18:02;;;;;;;12.70;6.43;;;;;;;7.36;76.88;96503.91;10290369;28;96920;-86
2022/03/16 23:23:05;;;;;;;11.38;6.13;;;;;;;7.27;76.98;96502.88;10278445;28;96798;-86
2022/03/16 23:28:08;;;;;;;10.98;5.72;;;;;;;7.24;77.18;96497.09;10275260;28;96804;-86
2022/03/16 23:33:12;;;;;;;9.43;5.85;;;;;;;7.30;76.71;96504.38;10272262;28;98922;-85
2022/03/16 23:38:16;;;;;;;10.07;5.87;;;;;;;7.28;76.78;96503.69;10283716;28;96962;-85
2022/03/16 23:43:19;;;;;;;10.75;6.70;;;;;;;7.10;77.15;96511.97;10287060;28;98837;-85
2022/03/16 23:48:23;;;;;;;14.77;7.72;;;;;;;6.91;77.60;96511.72;10290136;28;97016;-85
2022/03/16 23:53:26;;;;;;;11.47;7.60;;;;;;;6.89;77.98;96519.63;10275315;28;97728;-85
2022/03/16 23:58:31;;;;;;;9.70;6.22;;;;;;;6.93;78.09;96515.03;10276436;28;96873;-85
